sensor_id;sensor_type;location;lat;lon;timestamp;pressure;altitude;pressure_sealevel;temperature
42197;BMP280;27866;48.146;17.098;2023-04-03T00:02:48;99917.38;;;10.02
42197;BMP280;27866;48.146;17.098;2023-04-03T00:06:59;99923.16;;;9.93
42197;BMP280;27866;48.146;17.098;2023-04-03T00:11:11;99928.69;;;10.01
42197;BMP280;27866;48.146;17.098;2023-04-03T00:15:22;99923.88;;;9.95
42197;BMP280;27866;48.146;17.098;2023-04-03T00:19:34;99922.94;;;9.96
42197;BMP280;27866;48.146;17.098;2023-04-03T00:23:45;99929.97;;;9.94
42197;BMP280;27866;48.146;17.098;2023-04-03T00:27:57;99924.41;;;10.00
42197;BMP280;27866;48.146;17.098;2023-04-03T00:32:08;99929.97;;;9.94
42197;BMP280;27866;48.146;17.098;2023-04-03T00:36:19;99917.25;;;9.91
42197;BMP280;27866;48.146;17.098;2023-04-03T00:40:36;99928.88;;;9.84
42197;BMP280;27866;48.146;17.098;2023-04-03T00:48:59;99934.66;;;9.76
42197;BMP280;27866;48.146;17.098;2023-04-03T00:53:22;99942.28;;;9.77
42197;BMP280;27866;48.146;17.098;2023-04-03T00:57:34;99942.56;;;9.73
42197;BMP280;27866;48.146;17.098;2023-04-03T01:01:46;99942.59;;;9.59
42197;BMP280;27866;48.146;17.098;2023-04-03T01:05:58;99951.81;;;9.63
42197;BMP280;27866;48.146;17.098;2023-04-03T01:10:14;99943.69;;;9.69
42197;BMP280;27866;48.146;17.098;2023-04-03T01:14:26;99936.84;;;9.68
42197;BMP280;27866;48.146;17.098;2023-04-03T01:18:39;99937.84;;;9.66
42197;BMP280;27866;48.146;17.098;2023-04-03T01:27:21;99936.22;;;9.78
42197;BMP280;27866;48.146;17.098;2023-04-03T01:35:46;99943.84;;;9.93
42197;BMP280;27866;48.146;17.098;2023-04-03T01:39:58;99948.56;;;9.87
42197;BMP280;27866;48.146;17.098;2023-04-03T01:44:09;99948.69;;;9.72
42197;BMP280;27866;48.146;17.098;2023-04-03T01:48:21;99956.78;;;9.53
42197;BMP280;27866;48.146;17.098;2023-04-03T01:52:32;99949.88;;;9.40
42197;BMP280;27866;48.146;17.098;2023-04-03T01:56:43;99955.88;;;9.40
42197;BMP280;27866;48.146;17.098;2023-04-03T02:00:55;99960.59;;;9.34
42197;BMP280;27866;48.146;17.098;2023-04-03T02:05:07;99960.50;;;9.22
42197;BMP280;27866;48.146;17.098;2023-04-03T02:09:18;99964.00;;;9.34
42197;BMP280;27866;48.146;17.098;2023-04-03T02:13:29;99952.34;;;9.55
42197;BMP280;27866;48.146;17.098;2023-04-03T02:17:41;99950.03;;;9.64
42197;BMP280;27866;48.146;17.098;2023-04-03T02:21:52;99957.72;;;9.52
42197;BMP280;27866;48.146;17.098;2023-04-03T02:26:13;99950.16;;;9.49
42197;BMP280;27866;48.146;17.098;2023-04-03T02:30:25;99955.88;;;9.54
42197;BMP280;27866;48.146;17.098;2023-04-03T02:34:36;99954.19;;;9.66
42197;BMP280;27866;48.146;17.098;2023-04-03T02:38:48;99960.00;;;9.56
42197;BMP280;27866;48.146;17.098;2023-04-03T02:43:00;99948.31;;;9.51
42197;BMP280;27866;48.146;17.098;2023-04-03T02:47:11;99961.78;;;9.55
42197;BMP280;27866;48.146;17.098;2023-04-03T02:51:23;99954.94;;;9.55
42197;BMP280;27866;48.146;17.098;2023-04-03T02:55:34;99960.13;;;9.55
42197;BMP280;27866;48.146;17.098;2023-04-03T02:59:46;99974.72;;;9.69
42197;BMP280;27866;48.146;17.098;2023-04-03T03:03:59;99980.16;;;9.51
42197;BMP280;27866;48.146;17.098;2023-04-03T03:08:10;99975.72;;;9.40
42197;BMP280;27866;48.146;17.098;2023-04-03T03:12:21;99974.50;;;9.45
42197;BMP280;27866;48.146;17.098;2023-04-03T03:16:34;99991.50;;;9.49
42197;BMP280;27866;48.146;17.098;2023-04-03T03:20:46;99989.66;;;9.51
42197;BMP280;27866;48.146;17.098;2023-04-03T03:24:58;99993.34;;;9.47
42197;BMP280;27866;48.146;17.098;2023-04-03T03:29:09;99997.59;;;9.34
42197;BMP280;27866;48.146;17.098;2023-04-03T03:33:21;99995.91;;;9.33
42197;BMP280;27866;48.146;17.098;2023-04-03T03:37:32;100006.94;;;9.37
42197;BMP280;27866;48.146;17.098;2023-04-03T03:41:43;99999.81;;;9.40
42197;BMP280;27866;48.146;17.098;2023-04-03T03:45:55;100000.00;;;9.37
42197;BMP280;27866;48.146;17.098;2023-04-03T03:50:09;100000.53;;;9.28
42197;BMP280;27866;48.146;17.098;2023-04-03T03:54:21;99999.56;;;9.44
42197;BMP280;27866;48.146;17.098;2023-04-03T03:58:33;99999.34;;;9.47
42197;BMP280;27866;48.146;17.098;2023-04-03T04:02:46;100002.13;;;9.44
42197;BMP280;27866;48.146;17.098;2023-04-03T04:07:02;100002.69;;;9.49
42197;BMP280;27866;48.146;17.098;2023-04-03T04:11:15;100003.03;;;9.43
42197;BMP280;27866;48.146;17.098;2023-04-03T04:15:28;100011.66;;;9.57
42197;BMP280;27866;48.146;17.098;2023-04-03T04:19:41;100009.50;;;9.50
42197;BMP280;27866;48.146;17.098;2023-04-03T04:23:52;100015.88;;;9.45
42197;BMP280;27866;48.146;17.098;2023-04-03T04:28:05;100016.34;;;9.51
42197;BMP280;27866;48.146;17.098;2023-04-03T04:32:16;100022.88;;;9.43
42197;BMP280;27866;48.146;17.098;2023-04-03T04:36:28;100032.09;;;9.33
42197;BMP280;27866;48.146;17.098;2023-04-03T04:40:39;100028.06;;;9.43
42197;BMP280;27866;48.146;17.098;2023-04-03T04:44:51;100038.97;;;9.61
42197;BMP280;27866;48.146;17.098;2023-04-03T04:49:03;100025.84;;;9.64
42197;BMP280;27866;48.146;17.098;2023-04-03T04:53:15;100040.72;;;9.61
42197;BMP280;27866;48.146;17.098;2023-04-03T04:57:27;100044.03;;;9.49
42197;BMP280;27866;48.146;17.098;2023-04-03T05:01:39;100046.44;;;9.39
42197;BMP280;27866;48.146;17.098;2023-04-03T05:05:55;100046.69;;;9.34
42197;BMP280;27866;48.146;17.098;2023-04-03T05:10:08;100054.84;;;9.55
42197;BMP280;27866;48.146;17.098;2023-04-03T05:14:20;100035.81;;;9.70
42197;BMP280;27866;48.146;17.098;2023-04-03T05:18:31;100039.13;;;10.13
42197;BMP280;27866;48.146;17.098;2023-04-03T05:22:47;100040.81;;;10.13
42197;BMP280;27866;48.146;17.098;2023-04-03T05:26:59;100036.13;;;9.93
42197;BMP280;27866;48.146;17.098;2023-04-03T05:31:11;100043.63;;;9.84
42197;BMP280;27866;48.146;17.098;2023-04-03T05:35:24;100040.66;;;9.89
42197;BMP280;27866;48.146;17.098;2023-04-03T05:39:38;100041.63;;;9.60
42197;BMP280;27866;48.146;17.098;2023-04-03T05:43:52;100051.09;;;9.19
42197;BMP280;27866;48.146;17.098;2023-04-03T05:48:05;100059.13;;;8.86
42197;BMP280;27866;48.146;17.098;2023-04-03T05:56:33;100059.13;;;8.71
42197;BMP280;27866;48.146;17.098;2023-04-03T06:00:44;100058.66;;;8.65
42197;BMP280;27866;48.146;17.098;2023-04-03T06:04:57;100061.47;;;8.75
42197;BMP280;27866;48.146;17.098;2023-04-03T06:09:08;100063.75;;;8.95
42197;BMP280;27866;48.146;17.098;2023-04-03T06:13:20;100054.38;;;9.07
42197;BMP280;27866;48.146;17.098;2023-04-03T06:17:31;100057.72;;;9.09
42197;BMP280;27866;48.146;17.098;2023-04-03T06:21:43;100077.91;;;8.88
42197;BMP280;27866;48.146;17.098;2023-04-03T06:25:54;100083.09;;;8.88
42197;BMP280;27866;48.146;17.098;2023-04-03T06:30:08;100094.81;;;9.08
42197;BMP280;27866;48.146;17.098;2023-04-03T06:34:20;100074.56;;;15.18
42197;BMP280;27866;48.146;17.098;2023-04-03T06:38:33;100062.50;;;17.92
42197;BMP280;27866;48.146;17.098;2023-04-03T06:42:46;100079.81;;;15.57
42197;BMP280;27866;48.146;17.098;2023-04-03T06:46:57;100079.38;;;17.16
42197;BMP280;27866;48.146;17.098;2023-04-03T06:51:29;100099.22;;;17.00
42197;BMP280;27866;48.146;17.098;2023-04-03T06:55:40;100071.22;;;17.65
42197;BMP280;27866;48.146;17.098;2023-04-03T06:59:52;100092.78;;;19.85
42197;BMP280;27866;48.146;17.098;2023-04-03T07:04:03;100094.13;;;21.03
42197;BMP280;27866;48.146;17.098;2023-04-03T07:08:18;100109.63;;;22.37
42197;BMP280;27866;48.146;17.098;2023-04-03T07:12:29;100103.78;;;24.18
42197;BMP280;27866;48.146;17.098;2023-04-03T07:16:41;100105.31;;;26.53
42197;BMP280;27866;48.146;17.098;2023-04-03T07:20:52;100090.28;;;28.51
42197;BMP280;27866;48.146;17.098;2023-04-03T07:25:04;100074.50;;;28.63
42197;BMP280;27866;48.146;17.098;2023-04-03T07:29:18;100095.28;;;20.35
42197;BMP280;27866;48.146;17.098;2023-04-03T07:33:30;100088.28;;;20.44
42197;BMP280;27866;48.146;17.098;2023-04-03T07:37:42;100094.44;;;18.49
42197;BMP280;27866;48.146;17.098;2023-04-03T07:41:53;100101.75;;;15.85
42197;BMP280;27866;48.146;17.098;2023-04-03T07:46:06;100111.91;;;14.66
42197;BMP280;27866;48.146;17.098;2023-04-03T07:50:18;100120.63;;;13.36
42197;BMP280;27866;48.146;17.098;2023-04-03T07:54:29;100110.59;;;13.87
42197;BMP280;27866;48.146;17.098;2023-04-03T07:58:41;100099.97;;;16.06
42197;BMP280;27866;48.146;17.098;2023-04-03T08:02:52;100120.34;;;13.95
42197;BMP280;27866;48.146;17.098;2023-04-03T08:07:04;100134.91;;;13.98
42197;BMP280;27866;48.146;17.098;2023-04-03T08:11:15;100124.97;;;18.05
42197;BMP280;27866;48.146;17.098;2023-04-03T08:15:27;100124.94;;;18.59
42197;BMP280;27866;48.146;17.098;2023-04-03T08:19:39;100113.00;;;17.66
42197;BMP280;27866;48.146;17.098;2023-04-03T08:23:51;100130.75;;;16.31
42197;BMP280;27866;48.146;17.098;2023-04-03T08:28:02;100129.94;;;14.69
42197;BMP280;27866;48.146;17.098;2023-04-03T08:32:13;100133.09;;;19.25
42197;BMP280;27866;48.146;17.098;2023-04-03T08:36:29;100095.50;;;20.82
42197;BMP280;27866;48.146;17.098;2023-04-03T08:40:40;100083.97;;;22.23
42197;BMP280;27866;48.146;17.098;2023-04-03T08:45:18;100121.09;;;18.44
42197;BMP280;27866;48.146;17.098;2023-04-03T08:50:00;100108.75;;;25.05
42197;BMP280;27866;48.146;17.098;2023-04-03T08:54:35;100092.03;;;24.77
42197;BMP280;27866;48.146;17.098;2023-04-03T08:58:56;100100.88;;;23.78
42197;BMP280;27866;48.146;17.098;2023-04-03T09:03:14;100080.69;;;27.04
42197;BMP280;27866;48.146;17.098;2023-04-03T09:07:38;100091.97;;;27.77
42197;BMP280;27866;48.146;17.098;2023-04-03T09:16:56;100093.72;;;29.32
42197;BMP280;27866;48.146;17.098;2023-04-03T09:21:31;100072.69;;;24.62
42197;BMP280;27866;48.146;17.098;2023-04-03T09:25:46;100077.56;;;20.77
42197;BMP280;27866;48.146;17.098;2023-04-03T09:29:58;100099.19;;;19.14
42197;BMP280;27866;48.146;17.098;2023-04-03T09:38:41;100106.25;;;25.52
42197;BMP280;27866;48.146;17.098;2023-04-03T09:42:56;100104.66;;;28.50
42197;BMP280;27866;48.146;17.098;2023-04-03T09:47:27;100100.59;;;30.12
42197;BMP280;27866;48.146;17.098;2023-04-03T09:51:39;100073.97;;;28.97
42197;BMP280;27866;48.146;17.098;2023-04-03T09:55:51;100104.19;;;28.78
42197;BMP280;27866;48.146;17.098;2023-04-03T10:00:04;100103.44;;;29.57
42197;BMP280;27866;48.146;17.098;2023-04-03T10:04:19;100089.09;;;29.15
42197;BMP280;27866;48.146;17.098;2023-04-03T10:08:34;100099.97;;;29.20
42197;BMP280;27866;48.146;17.098;2023-04-03T10:12:46;100098.34;;;27.31
42197;BMP280;27866;48.146;17.098;2023-04-03T10:22:08;100097.28;;;30.40
42197;BMP280;27866;48.146;17.098;2023-04-03T10:36:02;100083.34;;;31.42
42197;BMP280;27866;48.146;17.098;2023-04-03T10:40:33;100088.59;;;30.85
42197;BMP280;27866;48.146;17.098;2023-04-03T10:45:06;100080.63;;;31.99
42197;BMP280;27866;48.146;17.098;2023-04-03T10:49:31;100077.22;;;31.07
42197;BMP280;27866;48.146;17.098;2023-04-03T10:54:24;100076.13;;;31.43
42197;BMP280;27866;48.146;17.098;2023-04-03T10:59:26;100073.72;;;31.07
42197;BMP280;27866;48.146;17.098;2023-04-03T11:03:40;100061.72;;;27.20
42197;BMP280;27866;48.146;17.098;2023-04-03T11:07:56;100066.50;;;25.18
42197;BMP280;27866;48.146;17.098;2023-04-03T11:12:39;100097.56;;;24.11
42197;BMP280;27866;48.146;17.098;2023-04-03T11:17:41;100074.75;;;27.73
42197;BMP280;27866;48.146;17.098;2023-04-03T11:22:35;100080.47;;;28.58
42197;BMP280;27866;48.146;17.098;2023-04-03T11:26:49;100067.50;;;29.89
42197;BMP280;27866;48.146;17.098;2023-04-03T11:35:47;100070.50;;;31.62
42197;BMP280;27866;48.146;17.098;2023-04-03T11:44:35;100066.84;;;25.49
42197;BMP280;27866;48.146;17.098;2023-04-03T11:48:50;100068.25;;;24.13
42197;BMP280;27866;48.146;17.098;2023-04-03T11:53:34;100081.03;;;25.22
42197;BMP280;27866;48.146;17.098;2023-04-03T12:02:36;100064.06;;;27.48
42197;BMP280;27866;48.146;17.098;2023-04-03T12:15:50;100056.31;;;27.65
42197;BMP280;27866;48.146;17.098;2023-04-03T12:20:52;100049.75;;;27.61
42197;BMP280;27866;48.146;17.098;2023-04-03T12:26:18;100039.38;;;27.08
42197;BMP280;27866;48.146;17.098;2023-04-03T12:30:35;100051.66;;;27.16
42197;BMP280;27866;48.146;17.098;2023-04-03T12:49:38;100054.84;;;26.92
42197;BMP280;27866;48.146;17.098;2023-04-03T12:53:52;100043.47;;;26.65
42197;BMP280;27866;48.146;17.098;2023-04-03T12:58:22;100058.81;;;26.63
42197;BMP280;27866;48.146;17.098;2023-04-03T13:02:35;100034.94;;;26.76
42197;BMP280;27866;48.146;17.098;2023-04-03T13:06:46;100037.38;;;27.29
42197;BMP280;27866;48.146;17.098;2023-04-03T13:11:09;100016.75;;;27.37
42197;BMP280;27866;48.146;17.098;2023-04-03T13:15:30;100017.34;;;28.95
42197;BMP280;27866;48.146;17.098;2023-04-03T13:19:52;100013.03;;;29.66
42197;BMP280;27866;48.146;17.098;2023-04-03T13:24:04;100007.47;;;28.59
42197;BMP280;27866;48.146;17.098;2023-04-03T13:28:21;100012.13;;;27.00
42197;BMP280;27866;48.146;17.098;2023-04-03T13:32:33;100019.84;;;22.60
42197;BMP280;27866;48.146;17.098;2023-04-03T13:36:58;100012.47;;;23.51
42197;BMP280;27866;48.146;17.098;2023-04-03T13:41:51;100010.38;;;23.24
42197;BMP280;27866;48.146;17.098;2023-04-03T13:50:25;100007.97;;;25.80
42197;BMP280;27866;48.146;17.098;2023-04-03T13:54:38;100016.63;;;26.48
42197;BMP280;27866;48.146;17.098;2023-04-03T13:59:34;100002.41;;;24.46
42197;BMP280;27866;48.146;17.098;2023-04-03T14:03:59;99974.47;;;23.08
42197;BMP280;27866;48.146;17.098;2023-04-03T14:08:10;99981.56;;;24.91
42197;BMP280;27866;48.146;17.098;2023-04-03T14:12:34;99968.28;;;25.46
42197;BMP280;27866;48.146;17.098;2023-04-03T14:16:56;99980.97;;;25.30
42197;BMP280;27866;48.146;17.098;2023-04-03T14:21:13;99975.09;;;23.18
42197;BMP280;27866;48.146;17.098;2023-04-03T14:25:24;100001.97;;;21.26
42197;BMP280;27866;48.146;17.098;2023-04-03T14:29:36;99983.22;;;22.87
42197;BMP280;27866;48.146;17.098;2023-04-03T14:33:48;99985.63;;;23.75
42197;BMP280;27866;48.146;17.098;2023-04-03T14:38:00;99976.81;;;23.47
42197;BMP280;27866;48.146;17.098;2023-04-03T14:42:21;99970.03;;;23.08
42197;BMP280;27866;48.146;17.098;2023-04-03T14:46:36;99998.59;;;22.83
42197;BMP280;27866;48.146;17.098;2023-04-03T14:50:49;99990.16;;;22.58
42197;BMP280;27866;48.146;17.098;2023-04-03T14:55:05;99975.19;;;22.73
42197;BMP280;27866;48.146;17.098;2023-04-03T14:59:17;99971.25;;;22.39
42197;BMP280;27866;48.146;17.098;2023-04-03T15:03:30;99983.63;;;21.86
42197;BMP280;27866;48.146;17.098;2023-04-03T15:07:49;99986.25;;;21.94
42197;BMP280;27866;48.146;17.098;2023-04-03T15:12:01;99972.78;;;21.66
42197;BMP280;27866;48.146;17.098;2023-04-03T15:16:18;99968.66;;;21.87
42197;BMP280;27866;48.146;17.098;2023-04-03T15:20:30;99968.25;;;22.05
42197;BMP280;27866;48.146;17.098;2023-04-03T15:24:44;99980.56;;;21.29
42197;BMP280;27866;48.146;17.098;2023-04-03T15:28:56;99996.34;;;21.05
42197;BMP280;27866;48.146;17.098;2023-04-03T15:33:07;99990.97;;;20.19
42197;BMP280;27866;48.146;17.098;2023-04-03T15:37:18;99983.22;;;19.85
42197;BMP280;27866;48.146;17.098;2023-04-03T15:41:30;99982.38;;;19.18
42197;BMP280;27866;48.146;17.098;2023-04-03T15:45:42;99981.00;;;18.47
42197;BMP280;27866;48.146;17.098;2023-04-03T15:49:54;100013.25;;;16.68
42197;BMP280;27866;48.146;17.098;2023-04-03T15:54:06;100009.56;;;14.64
42197;BMP280;27866;48.146;17.098;2023-04-03T15:58:17;100008.06;;;13.34
42197;BMP280;27866;48.146;17.098;2023-04-03T16:02:29;100007.06;;;12.58
42197;BMP280;27866;48.146;17.098;2023-04-03T16:06:40;100020.94;;;12.12
42197;BMP280;27866;48.146;17.098;2023-04-03T16:10:52;100043.53;;;11.39
42197;BMP280;27866;48.146;17.098;2023-04-03T16:15:04;100035.09;;;10.86
42197;BMP280;27866;48.146;17.098;2023-04-03T16:19:16;100028.91;;;10.62
42197;BMP280;27866;48.146;17.098;2023-04-03T16:23:27;100032.72;;;10.57
42197;BMP280;27866;48.146;17.098;2023-04-03T16:27:39;100039.06;;;10.40
42197;BMP280;27866;48.146;17.098;2023-04-03T16:31:50;100050.81;;;10.31
42197;BMP280;27866;48.146;17.098;2023-04-03T16:36:06;100034.66;;;9.89
42197;BMP280;27866;48.146;17.098;2023-04-03T16:40:17;100063.94;;;9.76
42197;BMP280;27866;48.146;17.098;2023-04-03T16:44:29;100064.34;;;9.55
42197;BMP280;27866;48.146;17.098;2023-04-03T16:48:40;100075.41;;;9.43
42197;BMP280;27866;48.146;17.098;2023-04-03T16:52:51;100059.13;;;9.28
42197;BMP280;27866;48.146;17.098;2023-04-03T16:57:03;100067.09;;;9.25
42197;BMP280;27866;48.146;17.098;2023-04-03T17:01:18;100082.69;;;9.09
42197;BMP280;27866;48.146;17.098;2023-04-03T17:05:29;100072.63;;;8.76
42197;BMP280;27866;48.146;17.098;2023-04-03T17:09:41;100072.66;;;8.61
42197;BMP280;27866;48.146;17.098;2023-04-03T17:13:52;100090.31;;;8.68
42197;BMP280;27866;48.146;17.098;2023-04-03T17:18:04;100095.47;;;8.53
42197;BMP280;27866;48.146;17.098;2023-04-03T17:22:16;100089.38;;;8.54
42197;BMP280;27866;48.146;17.098;2023-04-03T17:26:28;100093.22;;;8.47
42197;BMP280;27866;48.146;17.098;2023-04-03T17:30:39;100091.16;;;8.24
42197;BMP280;27866;48.146;17.098;2023-04-03T17:34:51;100095.22;;;8.12
42197;BMP280;27866;48.146;17.098;2023-04-03T17:39:03;100115.59;;;8.02
42197;BMP280;27866;48.146;17.098;2023-04-03T17:43:14;100108.78;;;8.01
42197;BMP280;27866;48.146;17.098;2023-04-03T17:47:26;100121.50;;;8.04
42197;BMP280;27866;48.146;17.098;2023-04-03T17:51:39;100119.09;;;8.01
42197;BMP280;27866;48.146;17.098;2023-04-03T17:55:50;100120.16;;;7.81
42197;BMP280;27866;48.146;17.098;2023-04-03T18:00:02;100131.38;;;7.80
42197;BMP280;27866;48.146;17.098;2023-04-03T18:04:23;100140.03;;;7.79
42197;BMP280;27866;48.146;17.098;2023-04-03T18:08:39;100155.47;;;7.79
42197;BMP280;27866;48.146;17.098;2023-04-03T18:12:52;100147.56;;;7.67
42197;BMP280;27866;48.146;17.098;2023-04-03T18:17:04;100162.03;;;7.52
42197;BMP280;27866;48.146;17.098;2023-04-03T18:21:16;100159.75;;;7.47
42197;BMP280;27866;48.146;17.098;2023-04-03T18:25:27;100173.50;;;7.47
42197;BMP280;27866;48.146;17.098;2023-04-03T18:29:41;100172.94;;;7.41
42197;BMP280;27866;48.146;17.098;2023-04-03T18:33:53;100169.41;;;7.43
42197;BMP280;27866;48.146;17.098;2023-04-03T18:38:05;100183.50;;;7.37
42197;BMP280;27866;48.146;17.098;2023-04-03T18:42:22;100197.34;;;7.34
42197;BMP280;27866;48.146;17.098;2023-04-03T18:46:35;100198.88;;;7.22
42197;BMP280;27866;48.146;17.098;2023-04-03T18:50:47;100214.44;;;7.19
42197;BMP280;27866;48.146;17.098;2023-04-03T18:54:59;100218.75;;;7.18
42197;BMP280;27866;48.146;17.098;2023-04-03T18:59:10;100225.72;;;7.16
42197;BMP280;27866;48.146;17.098;2023-04-03T19:03:21;100214.31;;;7.22
42197;BMP280;27866;48.146;17.098;2023-04-03T19:07:33;100219.69;;;7.17
42197;BMP280;27866;48.146;17.098;2023-04-03T19:11:44;100233.69;;;7.12
42197;BMP280;27866;48.146;17.098;2023-04-03T19:15:55;100240.78;;;7.07
42197;BMP280;27866;48.146;17.098;2023-04-03T19:20:10;100235.16;;;6.99
42197;BMP280;27866;48.146;17.098;2023-04-03T19:24:21;100254.16;;;6.97
42197;BMP280;27866;48.146;17.098;2023-04-03T19:28:34;100255.97;;;6.95
42197;BMP280;27866;48.146;17.098;2023-04-03T19:32:46;100260.41;;;6.92
42197;BMP280;27866;48.146;17.098;2023-04-03T19:36:57;100255.53;;;6.86
42197;BMP280;27866;48.146;17.098;2023-04-03T19:41:13;100256.59;;;6.82
42197;BMP280;27866;48.146;17.098;2023-04-03T19:45:25;100257.34;;;6.84
42197;BMP280;27866;48.146;17.098;2023-04-03T19:49:38;100253.47;;;6.76
42197;BMP280;27866;48.146;17.098;2023-04-03T19:53:49;100271.75;;;6.70
42197;BMP280;27866;48.146;17.098;2023-04-03T19:58:01;100276.25;;;6.65
42197;BMP280;27866;48.146;17.098;2023-04-03T20:02:12;100276.34;;;6.64
42197;BMP280;27866;48.146;17.098;2023-04-03T20:06:23;100279.88;;;6.61
42197;BMP280;27866;48.146;17.098;2023-04-03T20:10:35;100276.69;;;6.56
42197;BMP280;27866;48.146;17.098;2023-04-03T20:14:49;100276.88;;;6.52
42197;BMP280;27866;48.146;17.098;2023-04-03T20:19:01;100285.59;;;6.50
42197;BMP280;27866;48.146;17.098;2023-04-03T20:23:13;100285.09;;;6.42
42197;BMP280;27866;48.146;17.098;2023-04-03T20:27:25;100280.00;;;6.40
42197;BMP280;27866;48.146;17.098;2023-04-03T20:31:36;100274.31;;;6.34
42197;BMP280;27866;48.146;17.098;2023-04-03T20:35:49;100271.91;;;6.30
42197;BMP280;27866;48.146;17.098;2023-04-03T20:40:01;100266.84;;;6.28
42197;BMP280;27866;48.146;17.098;2023-04-03T20:44:12;100258.56;;;6.22
42197;BMP280;27866;48.146;17.098;2023-04-03T20:48:25;100256.91;;;6.21
42197;BMP280;27866;48.146;17.098;2023-04-03T20:52:36;100255.47;;;6.14
42197;BMP280;27866;48.146;17.098;2023-04-03T20:56:47;100250.75;;;6.06
42197;BMP280;27866;48.146;17.098;2023-04-03T21:01:00;100245.16;;;5.96
42197;BMP280;27866;48.146;17.098;2023-04-03T21:05:12;100246.38;;;5.88
42197;BMP280;27866;48.146;17.098;2023-04-03T21:19:41;100224.56;;;5.58
42197;BMP280;27866;48.146;17.098;2023-04-03T21:23:56;100218.09;;;5.49
42197;BMP280;27866;48.146;17.098;2023-04-03T21:28:07;100218.28;;;5.45
42197;BMP280;27866;48.146;17.098;2023-04-03T21:32:19;100211.69;;;5.38
42197;BMP280;27866;48.146;17.098;2023-04-03T21:36:39;100204.31;;;5.31
42197;BMP280;27866;48.146;17.098;2023-04-03T21:40:50;100197.63;;;5.27
42197;BMP280;27866;48.146;17.098;2023-04-03T21:45:02;100197.88;;;5.21
42197;BMP280;27866;48.146;17.098;2023-04-03T21:49:14;100203.00;;;5.21
42197;BMP280;27866;48.146;17.098;2023-04-03T21:53:26;100190.38;;;5.17
42197;BMP280;27866;48.146;17.098;2023-04-03T21:57:40;100187.84;;;5.16
42197;BMP280;27866;48.146;17.098;2023-04-03T22:01:51;100183.00;;;5.10
42197;BMP280;27866;48.146;17.098;2023-04-03T22:06:03;100170.47;;;5.03
42197;BMP280;27866;48.146;17.098;2023-04-03T22:10:15;100174.78;;;5.02
42197;BMP280;27866;48.146;17.098;2023-04-03T22:14:27;100179.31;;;4.96
42197;BMP280;27866;48.146;17.098;2023-04-03T22:18:38;100171.78;;;4.91
42197;BMP280;27866;48.146;17.098;2023-04-03T22:22:49;100173.53;;;4.91
42197;BMP280;27866;48.146;17.098;2023-04-03T22:27:01;100170.19;;;4.89
42197;BMP280;27866;48.146;17.098;2023-04-03T22:31:13;100185.63;;;4.88
42197;BMP280;27866;48.146;17.098;2023-04-03T22:35:25;100172.78;;;4.88
42197;BMP280;27866;48.146;17.098;2023-04-03T22:39:37;100162.59;;;4.86
42197;BMP280;27866;48.146;17.098;2023-04-03T22:43:48;100167.03;;;4.83
42197;BMP280;27866;48.146;17.098;2023-04-03T22:48:00;100175.75;;;4.79
42197;BMP280;27866;48.146;17.098;2023-04-03T22:52:11;100172.41;;;4.77
42197;BMP280;27866;48.146;17.098;2023-04-03T22:56:22;100162.38;;;4.71
42197;BMP280;27866;48.146;17.098;2023-04-03T23:00:33;100159.88;;;4.70
42197;BMP280;27866;48.146;17.098;2023-04-03T23:04:45;100158.38;;;4.64
42197;BMP280;27866;48.146;17.098;2023-04-03T23:08:56;100167.13;;;4.59
42197;BMP280;27866;48.146;17.098;2023-04-03T23:13:08;100146.91;;;4.52
42197;BMP280;27866;48.146;17.098;2023-04-03T23:17:19;100145.31;;;4.49
42197;BMP280;27866;48.146;17.098;2023-04-03T23:21:30;100138.59;;;4.47
42197;BMP280;27866;48.146;17.098;2023-04-03T23:25:41;100137.91;;;4.42
42197;BMP280;27866;48.146;17.098;2023-04-03T23:29:53;100160.97;;;4.42
42197;BMP280;27866;48.146;17.098;2023-04-03T23:34:04;100148.16;;;4.42
42197;BMP280;27866;48.146;17.098;2023-04-03T23:38:15;100144.81;;;4.40
42197;BMP280;27866;48.146;17.098;2023-04-03T23:42:27;100149.00;;;4.43
42197;BMP280;27866;48.146;17.098;2023-04-03T23:46:38;100135.41;;;4.41
42197;BMP280;27866;48.146;17.098;2023-04-03T23:50:50;100140.69;;;4.36
42197;BMP280;27866;48.146;17.098;2023-04-03T23:55:01;100141.69;;;4.34
42197;BMP280;27866;48.146;17.098;2023-04-03T23:59:14;100148.53;;;4.33
